createdAt,value
2023-04-09T00:00:06.640Z,0.00
2023-04-09T00:01:06.616Z,0.00
2023-04-09T00:02:06.634Z,0.00
2023-04-09T00:03:06.686Z,0.00
2023-04-09T00:04:06.718Z,0.00
2023-04-09T00:05:06.559Z,0.00
2023-04-09T00:06:06.550Z,0.00
2023-04-09T00:07:06.549Z,0.00
2023-04-09T00:08:06.557Z,0.00
2023-04-09T00:09:06.511Z,0.00
2023-04-09T00:10:06.576Z,0.00
2023-04-09T00:11:06.490Z,0.00
2023-04-09T00:12:06.499Z,0.00
2023-04-09T00:13:06.498Z,0.00
2023-04-09T00:14:06.464Z,0.00
2023-04-09T00:15:06.463Z,0.00
2023-04-09T00:16:06.500Z,0.00
2023-04-09T00:17:06.433Z,0.00
2023-04-09T00:18:06.508Z,0.00
2023-04-09T00:19:06.406Z,0.00
2023-04-09T00:20:06.421Z,0.00
2023-04-09T00:21:06.435Z,0.00
2023-04-09T00:22:06.384Z,0.00
2023-04-09T00:23:06.363Z,0.00
2023-04-09T00:24:06.355Z,0.00
2023-04-09T00:25:06.365Z,0.00
2023-04-09T00:26:06.345Z,0.00
2023-04-09T00:27:06.319Z,0.00
2023-04-09T00:28:06.358Z,0.00
2023-04-09T00:29:06.297Z,0.00
2023-04-09T00:30:06.318Z,0.00
2023-04-09T00:31:06.277Z,0.00
2023-04-09T00:32:06.388Z,0.00
2023-04-09T00:33:06.284Z,0.00
2023-04-09T00:34:06.246Z,0.00
2023-04-09T00:35:06.248Z,0.00
2023-04-09T00:36:06.258Z,0.00
2023-04-09T00:37:06.226Z,0.00
2023-04-09T00:38:06.217Z,0.00
2023-04-09T00:39:06.189Z,0.00
2023-04-09T00:40:06.212Z,0.00
2023-04-09T00:41:06.168Z,0.00
2023-04-09T00:42:06.167Z,0.00
2023-04-09T00:43:06.146Z,0.00
2023-04-09T00:44:06.136Z,0.00
2023-04-09T00:45:06.188Z,0.00
2023-04-09T00:46:06.143Z,0.00
2023-04-09T00:47:06.107Z,0.00
2023-04-09T00:48:06.118Z,0.00
2023-04-09T00:49:06.082Z,0.00
2023-04-09T00:50:06.090Z,0.00
2023-04-09T00:51:06.062Z,0.00
2023-04-09T00:52:06.060Z,0.00
2023-04-09T00:53:06.048Z,0.00
2023-04-09T00:54:06.036Z,0.00
2023-04-09T00:55:06.044Z,0.00
2023-04-09T00:56:06.024Z,0.00
2023-04-09T00:57:06.001Z,0.00
2023-04-09T00:58:05.988Z,0.00
2023-04-09T00:59:06.007Z,0.00
2023-04-09T01:00:05.993Z,0.00
2023-04-09T01:01:05.977Z,0.00
2023-04-09T01:02:06.097Z,0.00
2023-04-09T01:03:05.987Z,0.00
2023-04-09T01:04:05.958Z,0.00
2023-04-09T01:05:05.925Z,0.00
2023-04-09T01:06:05.920Z,0.00
2023-04-09T01:07:05.888Z,0.00
2023-04-09T01:08:05.882Z,0.00
2023-04-09T01:09:05.870Z,0.00
2023-04-09T01:10:05.892Z,0.00
2023-04-09T01:11:05.846Z,0.00
2023-04-09T01:12:05.834Z,0.00
2023-04-09T01:13:05.828Z,0.00
2023-04-09T01:14:05.825Z,0.00
2023-04-09T01:15:05.814Z,0.00
2023-04-09T01:16:05.829Z,0.00
2023-04-09T01:17:05.833Z,0.00
2023-04-09T01:18:05.823Z,0.00
2023-04-09T01:19:05.765Z,0.00
2023-04-09T01:20:05.781Z,0.00
2023-04-09T01:21:05.743Z,0.00
2023-04-09T01:22:05.735Z,0.00
2023-04-09T01:23:05.722Z,0.00
2023-04-09T01:24:05.708Z,0.00
2023-04-09T01:25:05.712Z,0.00
2023-04-09T01:26:05.682Z,0.00
2023-04-09T01:27:05.669Z,0.00
2023-04-09T01:28:05.663Z,0.00
2023-04-09T01:29:05.652Z,0.00
2023-04-09T01:30:05.654Z,0.00
2023-04-09T01:31:05.684Z,0.00
2023-04-09T01:32:05.619Z,0.00
2023-04-09T01:33:05.609Z,0.00
2023-04-09T01:34:05.599Z,0.00
2023-04-09T01:35:05.638Z,0.00
2023-04-09T01:36:05.669Z,0.00
2023-04-09T01:37:05.564Z,0.00
2023-04-09T01:38:05.554Z,0.00
2023-04-09T01:39:05.544Z,0.00
2023-04-09T01:40:05.560Z,0.00
2023-04-09T01:41:05.526Z,0.00
2023-04-09T01:42:05.511Z,0.00
2023-04-09T01:43:05.499Z,0.00
2023-04-09T01:44:05.498Z,0.00
2023-04-09T01:45:05.493Z,0.00
2023-04-09T01:46:05.485Z,0.00
2023-04-09T01:47:05.462Z,0.00
2023-04-09T01:48:05.448Z,0.00
2023-04-09T01:49:05.435Z,0.00
2023-04-09T01:50:05.480Z,0.00
2023-04-09T01:51:05.419Z,0.00
2023-04-09T01:52:05.427Z,0.00
2023-04-09T01:53:05.397Z,0.00
2023-04-09T01:54:05.387Z,0.00
2023-04-09T01:55:05.383Z,0.00
2023-04-09T01:56:05.385Z,0.00
2023-04-09T01:57:05.350Z,0.00
2023-04-09T01:58:05.342Z,0.00
2023-04-09T01:59:05.334Z,0.00
2023-04-09T02:00:05.381Z,0.00
2023-04-09T02:01:05.358Z,0.00
2023-04-09T02:02:05.426Z,0.00
2023-04-09T02:03:05.415Z,0.00
2023-04-09T02:04:05.375Z,0.00
2023-04-09T02:05:05.266Z,0.00
2023-04-09T02:06:05.254Z,0.00
2023-04-09T02:07:05.259Z,0.00
2023-04-09T02:08:05.248Z,0.00
2023-04-09T02:09:05.223Z,0.00
2023-04-09T02:10:05.313Z,0.00
2023-04-09T02:11:05.219Z,0.00
2023-04-09T02:12:05.191Z,0.00
2023-04-09T02:13:05.177Z,0.00
2023-04-09T02:14:05.167Z,0.00
2023-04-09T02:15:05.185Z,0.00
2023-04-09T02:16:05.269Z,0.00
2023-04-09T02:17:05.138Z,0.00
2023-04-09T02:18:05.126Z,0.00
2023-04-09T02:19:05.113Z,0.00
2023-04-09T02:20:05.102Z,0.00
2023-04-09T02:21:05.170Z,0.00
2023-04-09T02:22:12.986Z,0.00
2023-04-09T02:23:05.214Z,0.00
2023-04-09T02:24:05.096Z,0.00
2023-04-09T02:25:05.065Z,0.00
2023-04-09T02:26:05.064Z,0.00
2023-04-09T02:27:05.030Z,0.00
2023-04-09T02:28:05.024Z,0.00
2023-04-09T02:29:05.017Z,0.00
2023-04-09T02:30:05.003Z,0.00
2023-04-09T02:31:05.059Z,0.00
2023-04-09T02:32:04.978Z,0.00
2023-04-09T02:33:04.972Z,0.00
2023-04-09T02:34:04.960Z,0.00
2023-04-09T02:35:05.025Z,0.00
2023-04-09T02:36:04.988Z,0.00
2023-04-09T02:37:04.922Z,0.00
2023-04-09T02:38:04.925Z,0.00
2023-04-09T02:39:04.902Z,0.00
2023-04-09T02:40:04.923Z,0.00
2023-04-09T02:41:04.902Z,0.00
2023-04-09T02:42:04.876Z,0.00
2023-04-09T02:43:04.865Z,0.00
2023-04-09T02:44:04.857Z,0.00
2023-04-09T02:45:04.851Z,0.00
2023-04-09T02:46:04.900Z,0.00
2023-04-09T02:47:04.813Z,0.00
2023-04-09T02:48:04.810Z,0.00
2023-04-09T02:49:04.793Z,0.00
2023-04-09T02:50:04.794Z,0.00
2023-04-09T02:51:04.795Z,0.00
2023-04-09T02:52:04.779Z,0.00
2023-04-09T02:53:04.764Z,0.00
2023-04-09T02:54:04.745Z,0.00
2023-04-09T02:55:04.737Z,0.00
2023-04-09T02:56:04.786Z,0.00
2023-04-09T02:57:04.709Z,0.00
2023-04-09T02:58:04.717Z,0.00
2023-04-09T02:59:04.692Z,0.00
2023-04-09T03:00:04.682Z,0.00
2023-04-09T03:01:04.687Z,0.00
2023-04-09T03:02:04.835Z,0.00
2023-04-09T03:03:04.781Z,0.00
2023-04-09T03:04:04.742Z,0.00
2023-04-09T03:05:04.632Z,0.00
2023-04-09T03:06:04.653Z,0.00
2023-04-09T03:07:04.604Z,0.00
2023-04-09T03:08:04.601Z,0.00
2023-04-09T03:09:04.581Z,0.00
2023-04-09T03:10:04.593Z,0.00
2023-04-09T03:11:04.583Z,0.00
2023-04-09T03:12:04.579Z,0.00
2023-04-09T03:13:04.536Z,0.00
2023-04-09T03:14:04.585Z,0.00
2023-04-09T03:15:04.542Z,0.00
2023-04-09T03:16:04.519Z,0.00
2023-04-09T03:17:04.496Z,0.00
2023-04-09T03:18:04.531Z,0.00
2023-04-09T03:19:04.486Z,0.00
2023-04-09T03:20:04.514Z,0.00
2023-04-09T03:21:04.491Z,0.00
2023-04-09T03:22:04.445Z,0.00
2023-04-09T03:23:04.429Z,0.00
2023-04-09T03:24:04.425Z,0.00
2023-04-09T03:25:04.419Z,0.00
2023-04-09T03:26:04.447Z,0.00
2023-04-09T03:27:04.391Z,0.00
2023-04-09T03:28:04.401Z,0.00
2023-04-09T03:29:04.365Z,0.00
2023-04-09T03:30:04.358Z,0.00
2023-04-09T03:31:04.434Z,0.00
2023-04-09T03:32:04.337Z,0.00
2023-04-09T03:33:04.389Z,0.00
2023-04-09T03:34:04.345Z,0.00
2023-04-09T03:35:04.302Z,0.00
2023-04-09T03:36:04.318Z,0.00
2023-04-09T03:37:04.281Z,0.00
2023-04-09T03:38:04.289Z,0.00
2023-04-09T03:39:04.260Z,0.00
2023-04-09T03:40:04.250Z,0.00
2023-04-09T03:41:04.320Z,0.00
2023-04-09T03:42:04.230Z,0.00
2023-04-09T03:43:04.221Z,0.00
2023-04-09T03:44:04.221Z,0.00
2023-04-09T03:45:04.202Z,0.00
2023-04-09T03:46:04.237Z,0.00
2023-04-09T03:47:04.177Z,0.00
2023-04-09T03:48:04.281Z,0.00
2023-04-09T03:49:04.161Z,0.00
2023-04-09T03:50:04.160Z,0.00
2023-04-09T03:51:04.142Z,0.00
2023-04-09T03:52:04.290Z,4.00
2023-04-09T03:53:04.113Z,4.00
2023-04-09T03:54:04.096Z,0.00
2023-04-09T03:55:04.125Z,0.00
2023-04-09T03:56:04.077Z,4.00
2023-04-09T03:57:04.064Z,4.00
2023-04-09T03:58:04.064Z,4.00
2023-04-09T03:59:04.048Z,4.00
2023-04-09T04:00:04.092Z,8.00
2023-04-09T04:01:04.022Z,8.00
2023-04-09T04:02:04.076Z,8.00
2023-04-09T04:03:04.269Z,8.00
2023-04-09T04:04:04.079Z,8.00
2023-04-09T04:05:03.998Z,12.00
2023-04-09T04:06:03.978Z,12.00
2023-04-09T04:07:04.002Z,16.00
2023-04-09T04:08:03.945Z,16.00
2023-04-09T04:09:03.947Z,20.00
2023-04-09T04:10:03.962Z,24.00
2023-04-09T04:11:03.913Z,28.00
2023-04-09T04:12:03.905Z,32.00
2023-04-09T04:13:03.966Z,40.00
2023-04-09T04:14:03.879Z,40.00
2023-04-09T04:15:03.881Z,52.00
2023-04-09T04:16:03.910Z,56.00
2023-04-09T04:17:03.852Z,60.00
2023-04-09T04:18:03.848Z,68.00
2023-04-09T04:19:03.840Z,76.00
2023-04-09T04:20:03.836Z,88.00
2023-04-09T04:21:03.842Z,96.00
2023-04-09T04:22:03.802Z,104.00
2023-04-09T04:23:03.788Z,116.00
2023-04-09T04:24:03.802Z,128.00
2023-04-09T04:25:03.784Z,144.00
2023-04-09T04:26:03.748Z,152.00
2023-04-09T04:27:03.747Z,168.00
2023-04-09T04:28:03.731Z,180.00
2023-04-09T04:29:03.725Z,200.00
2023-04-09T04:30:03.732Z,216.00
2023-04-09T04:31:03.698Z,232.00
2023-04-09T04:32:03.820Z,252.00
2023-04-09T04:33:03.719Z,268.00
2023-04-09T04:34:03.674Z,288.00
2023-04-09T04:35:03.675Z,316.00
2023-04-09T04:36:03.652Z,332.00
2023-04-09T04:37:03.635Z,356.00
2023-04-09T04:38:03.628Z,380.00
2023-04-09T04:39:03.617Z,400.00
2023-04-09T04:40:03.634Z,428.00
2023-04-09T04:41:03.599Z,460.00
2023-04-09T04:42:03.585Z,488.00
2023-04-09T04:43:03.571Z,524.00
2023-04-09T04:44:03.562Z,564.00
2023-04-09T04:45:03.571Z,600.00
2023-04-09T04:46:03.542Z,640.00
2023-04-09T04:47:03.533Z,672.00
2023-04-09T04:48:03.582Z,708.00
2023-04-09T04:49:03.513Z,740.00
2023-04-09T04:50:03.550Z,780.00
2023-04-09T04:51:03.509Z,812.00
2023-04-09T04:52:03.472Z,840.00
2023-04-09T04:53:03.466Z,840.00
2023-04-09T04:54:03.453Z,840.00
2023-04-09T04:55:03.502Z,832.00
2023-04-09T04:56:03.431Z,812.00
2023-04-09T04:57:03.447Z,784.00
2023-04-09T04:58:03.424Z,736.00
2023-04-09T04:59:03.402Z,692.00
2023-04-09T05:00:03.421Z,644.00
2023-04-09T05:01:03.406Z,632.00
2023-04-09T05:02:03.437Z,652.00
2023-04-09T05:03:03.508Z,648.00
2023-04-09T05:04:03.406Z,632.00
2023-04-09T05:05:03.344Z,620.00
2023-04-09T05:06:03.318Z,604.00
2023-04-09T05:07:03.311Z,612.00
2023-04-09T05:08:03.299Z,640.00
2023-04-09T05:09:03.293Z,656.00
2023-04-09T05:10:03.314Z,648.00
2023-04-09T05:11:03.272Z,624.00
2023-04-09T05:12:03.257Z,648.00
2023-04-09T05:13:03.258Z,684.00
2023-04-09T05:14:03.232Z,656.00
2023-04-09T05:15:03.223Z,656.00
2023-04-09T05:16:03.236Z,656.00
2023-04-09T05:17:03.242Z,664.00
2023-04-09T05:18:03.202Z,680.00
2023-04-09T05:19:03.181Z,712.00
2023-04-09T05:20:03.193Z,712.00
2023-04-09T05:21:03.189Z,700.00
2023-04-09T05:22:03.168Z,692.00
2023-04-09T05:23:03.140Z,700.00
2023-04-09T05:24:03.134Z,716.00
2023-04-09T05:25:03.132Z,740.00
2023-04-09T05:26:03.129Z,744.00
2023-04-09T05:27:03.110Z,792.00
2023-04-09T05:28:03.145Z,812.00
2023-04-09T05:29:03.090Z,804.00
2023-04-09T05:30:03.066Z,816.00
2023-04-09T05:31:03.088Z,864.00
2023-04-09T05:32:03.048Z,892.00
2023-04-09T05:33:03.030Z,916.00
2023-04-09T05:34:03.022Z,928.00
2023-04-09T05:35:03.032Z,920.00
2023-04-09T05:36:03.042Z,904.00
2023-04-09T05:37:03.009Z,884.00
2023-04-09T05:38:02.991Z,860.00
2023-04-09T05:39:03.012Z,884.00
2023-04-09T05:40:03.004Z,952.00
2023-04-09T05:41:02.957Z,1008.00
2023-04-09T05:42:02.935Z,1108.00
2023-04-09T05:43:02.946Z,1208.00
2023-04-09T05:44:02.928Z,1280.00
2023-04-09T05:45:02.908Z,1248.00
2023-04-09T05:46:02.951Z,1196.00
2023-04-09T05:47:02.892Z,1188.00
2023-04-09T05:48:02.890Z,1256.00
2023-04-09T05:49:02.870Z,1372.00
2023-04-09T05:50:02.895Z,1420.00
2023-04-09T05:51:02.856Z,1360.00
2023-04-09T05:52:02.891Z,1276.00
2023-04-09T05:53:02.860Z,1252.00
2023-04-09T05:54:02.816Z,1288.00
2023-04-09T05:55:02.827Z,1388.00
2023-04-09T05:56:02.791Z,1536.00
2023-04-09T05:57:02.782Z,1656.00
2023-04-09T05:58:02.766Z,1768.00
2023-04-09T05:59:02.761Z,1800.00
2023-04-09T06:00:02.782Z,1720.00
2023-04-09T06:01:02.737Z,1612.00
2023-04-09T06:02:02.817Z,1620.00
2023-04-09T06:03:02.751Z,1672.00
2023-04-09T06:04:03.246Z,1744.00
2023-04-09T06:05:02.758Z,1784.00
2023-04-09T06:06:02.687Z,1768.00
2023-04-09T06:07:02.670Z,1784.00
2023-04-09T06:08:02.702Z,1876.00
2023-04-09T06:09:02.654Z,1868.00
2023-04-09T06:10:02.678Z,1836.00
2023-04-09T06:11:02.634Z,1768.00
2023-04-09T06:12:02.622Z,1840.00
2023-04-09T06:13:02.609Z,2012.00
2023-04-09T06:14:02.605Z,2232.00
2023-04-09T06:15:02.614Z,2268.00
2023-04-09T06:16:02.634Z,2148.00
2023-04-09T06:17:02.585Z,2016.00
2023-04-09T06:18:02.592Z,2084.00
2023-04-09T06:19:02.556Z,2280.00
2023-04-09T06:20:02.588Z,2556.00
2023-04-09T06:21:02.525Z,2608.00
2023-04-09T06:22:02.519Z,2532.00
2023-04-09T06:23:02.514Z,2576.00
2023-04-09T06:24:02.507Z,2724.00
2023-04-09T06:25:02.517Z,2676.00
2023-04-09T06:26:02.540Z,2720.00
2023-04-09T06:27:02.470Z,2588.00
2023-04-09T06:28:02.448Z,2724.00
2023-04-09T06:29:02.448Z,2664.00
2023-04-09T06:30:02.443Z,2460.00
2023-04-09T06:31:02.471Z,2492.00
2023-04-09T06:32:02.400Z,2504.00
2023-04-09T06:33:02.497Z,2448.00
2023-04-09T06:34:02.402Z,2420.00
2023-04-09T06:35:02.406Z,2488.00
2023-04-09T06:36:02.371Z,2580.00
2023-04-09T06:37:02.354Z,2756.00
2023-04-09T06:38:02.347Z,2860.00
2023-04-09T06:39:02.328Z,2664.00
2023-04-09T06:40:02.409Z,2476.00
2023-04-09T06:41:02.319Z,2656.00
2023-04-09T06:42:02.314Z,2756.00
2023-04-09T06:43:02.293Z,2896.00
2023-04-09T06:44:02.275Z,3288.00
2023-04-09T06:45:02.327Z,3572.00
2023-04-09T06:46:02.324Z,3820.00
2023-04-09T06:47:02.257Z,3920.00
2023-04-09T06:48:02.328Z,3840.00
2023-04-09T06:49:02.238Z,4324.00
2023-04-09T06:50:02.280Z,5120.00
2023-04-09T06:51:02.287Z,5516.00
2023-04-09T06:52:02.190Z,5776.00
2023-04-09T06:53:02.237Z,5884.00
2023-04-09T06:54:02.178Z,6892.00
2023-04-09T06:55:02.173Z,7808.00
2023-04-09T06:56:02.162Z,9720.00
2023-04-09T06:57:02.181Z,12020.00
2023-04-09T06:58:02.121Z,10232.00
2023-04-09T06:59:02.195Z,10096.00
2023-04-09T07:00:02.130Z,11476.00
2023-04-09T07:01:02.165Z,11540.00
2023-04-09T07:02:02.211Z,11724.00
2023-04-09T07:03:02.718Z,10608.00
2023-04-09T07:04:02.184Z,10504.00
2023-04-09T07:05:02.066Z,10464.00
2023-04-09T07:06:02.032Z,10540.00
2023-04-09T07:07:02.034Z,11868.00
2023-04-09T07:08:02.012Z,9404.00
2023-04-09T07:09:02.013Z,8772.00
2023-04-09T07:10:02.035Z,7776.00
2023-04-09T07:11:02.019Z,7808.00
2023-04-09T07:12:01.998Z,9164.00
2023-04-09T07:13:01.959Z,10116.00
2023-04-09T07:14:01.969Z,12312.00
2023-04-09T07:15:01.971Z,10576.00
2023-04-09T07:16:01.973Z,10408.00
2023-04-09T07:17:01.936Z,12120.00
2023-04-09T07:18:01.968Z,12172.00
2023-04-09T07:19:01.920Z,14744.00
2023-04-09T07:20:01.881Z,15680.00
2023-04-09T07:21:02.778Z,11212.00
2023-04-09T07:22:01.880Z,11092.00
2023-04-09T07:23:01.856Z,14048.00
2023-04-09T07:24:01.868Z,12880.00
2023-04-09T07:25:01.982Z,12976.00
2023-04-09T07:26:01.826Z,12000.00
2023-04-09T07:27:01.832Z,10420.00
2023-04-09T07:28:01.848Z,9788.00
2023-04-09T07:29:01.795Z,10212.00
2023-04-09T07:30:01.776Z,22208.00
2023-04-09T07:31:01.798Z,23520.00
2023-04-09T07:32:01.831Z,18240.00
2023-04-09T07:33:01.777Z,16736.00
2023-04-09T07:34:01.752Z,22624.00
2023-04-09T07:35:01.722Z,21888.00
2023-04-09T07:36:01.807Z,30464.00
2023-04-09T07:37:01.705Z,31232.00
2023-04-09T07:38:01.706Z,32096.00
2023-04-09T07:39:01.687Z,27616.00
2023-04-09T07:40:01.693Z,30304.00
2023-04-09T07:41:01.698Z,18080.00
2023-04-09T07:42:01.649Z,15408.00
2023-04-09T07:43:01.633Z,19040.00
2023-04-09T07:44:01.641Z,16320.00
2023-04-09T07:45:01.623Z,15284.00
2023-04-09T07:46:01.600Z,23776.00
2023-04-09T07:47:01.815Z,25088.00
2023-04-09T07:48:01.680Z,16832.00
2023-04-09T07:49:01.617Z,14140.00
2023-04-09T07:50:01.568Z,13528.00
2023-04-09T07:51:01.564Z,14628.00
2023-04-09T07:52:01.568Z,31040.00
2023-04-09T07:53:01.563Z,24288.00
2023-04-09T07:54:01.564Z,23424.00
2023-04-09T07:55:01.530Z,22112.00
2023-04-09T07:56:01.542Z,24416.00
2023-04-09T07:57:01.557Z,36672.00
2023-04-09T07:58:01.496Z,37504.00
2023-04-09T07:59:01.461Z,31168.00
2023-04-09T08:00:01.520Z,24128.00
2023-04-09T08:01:01.444Z,35104.00
2023-04-09T08:02:01.571Z,36576.00
2023-04-09T08:03:01.581Z,43136.00
2023-04-09T08:04:01.588Z,42816.00
2023-04-09T08:05:01.464Z,42752.00
2023-04-09T08:06:01.391Z,40064.00
2023-04-09T08:07:01.373Z,42144.00
2023-04-09T08:08:01.390Z,22752.00
2023-04-09T08:09:01.351Z,34752.00
2023-04-09T08:10:01.441Z,46496.00
2023-04-09T08:11:01.333Z,43040.00
2023-04-09T08:12:01.319Z,29408.00
2023-04-09T08:13:01.309Z,46176.00
2023-04-09T08:14:01.335Z,22432.00
2023-04-09T08:15:01.330Z,18400.00
2023-04-09T08:16:01.370Z,45824.00
2023-04-09T08:17:01.267Z,45792.00
2023-04-09T08:18:01.292Z,43520.00
2023-04-09T08:19:01.247Z,44960.00
2023-04-09T08:20:01.259Z,44128.00
2023-04-09T08:21:01.225Z,44352.00
2023-04-09T08:22:01.232Z,45760.00
2023-04-09T08:23:09.096Z,45216.00
2023-04-09T08:24:01.193Z,38752.00
2023-04-09T08:25:02.830Z,27840.00
2023-04-09T08:26:01.169Z,22272.00
2023-04-09T08:27:01.156Z,43776.00
2023-04-09T08:28:01.144Z,44832.00
2023-04-09T08:29:01.132Z,49792.00
2023-04-09T08:30:01.153Z,52384.00
2023-04-09T08:31:01.117Z,36832.00
2023-04-09T08:32:01.234Z,25472.00
2023-04-09T08:33:01.130Z,17216.00
2023-04-09T08:34:01.081Z,15500.00
2023-04-09T08:35:01.103Z,15508.00
2023-04-09T08:36:03.187Z,23488.00
2023-04-09T08:37:01.056Z,27776.00
2023-04-09T08:38:01.051Z,50304.00
2023-04-09T08:39:01.034Z,48000.00
2023-04-09T08:40:01.041Z,46080.00
2023-04-09T08:41:01.022Z,46080.00
2023-04-09T08:42:00.998Z,46848.00
2023-04-09T08:43:00.984Z,43168.00
2023-04-09T08:44:00.979Z,48512.00
2023-04-09T08:45:00.975Z,49056.00
2023-04-09T08:46:00.990Z,44608.00
2023-04-09T08:47:00.940Z,23840.00
2023-04-09T08:48:00.984Z,46528.00
2023-04-09T08:49:00.941Z,30368.00
2023-04-09T08:50:00.915Z,20384.00
2023-04-09T08:51:00.900Z,17888.00
2023-04-09T08:52:01.126Z,17600.00
2023-04-09T08:53:00.881Z,17056.00
2023-04-09T08:54:04.019Z,24192.00
2023-04-09T08:55:00.936Z,43776.00
2023-04-09T08:56:00.853Z,28736.00
2023-04-09T08:57:00.833Z,46816.00
2023-04-09T08:58:00.826Z,50240.00
2023-04-09T08:59:00.818Z,29632.00
2023-04-09T09:00:00.817Z,47328.00
2023-04-09T09:01:00.838Z,45920.00
2023-04-09T09:02:00.934Z,47744.00
2023-04-09T09:03:01.037Z,45888.00
2023-04-09T09:04:00.936Z,45056.00
2023-04-09T09:05:00.818Z,43968.00
2023-04-09T09:06:00.753Z,47552.00
2023-04-09T09:07:00.729Z,47200.00
2023-04-09T09:08:00.722Z,45728.00
2023-04-09T09:09:00.746Z,34208.00
2023-04-09T09:10:00.713Z,24768.00
2023-04-09T09:11:00.685Z,24576.00
2023-04-09T09:12:00.679Z,49504.00
2023-04-09T09:13:00.663Z,48032.00
2023-04-09T09:14:00.708Z,48544.00
2023-04-09T09:15:00.663Z,46656.00
2023-04-09T09:16:00.638Z,28544.00
2023-04-09T09:17:00.625Z,28608.00
2023-04-09T09:18:00.778Z,40416.00
2023-04-09T09:19:00.661Z,28000.00
2023-04-09T09:20:00.694Z,45920.00
2023-04-09T09:21:00.578Z,47072.00
2023-04-09T09:22:00.571Z,31136.00
2023-04-09T09:23:00.561Z,38784.00
2023-04-09T09:24:00.547Z,41280.00
2023-04-09T09:25:00.547Z,43424.00
2023-04-09T09:26:00.529Z,39072.00
2023-04-09T09:27:00.516Z,38592.00
2023-04-09T09:28:00.508Z,45280.00
2023-04-09T09:29:00.493Z,48352.00
2023-04-09T09:30:00.504Z,47904.00
2023-04-09T09:31:00.523Z,47552.00
2023-04-09T09:32:00.465Z,46848.00
2023-04-09T09:33:00.483Z,50400.00
2023-04-09T09:34:00.456Z,51584.00
2023-04-09T09:35:00.465Z,52800.00
2023-04-09T09:36:00.464Z,50272.00
2023-04-09T09:37:00.418Z,52256.00
2023-04-09T09:38:00.406Z,53632.00
2023-04-09T09:39:00.436Z,54496.00
2023-04-09T09:40:00.382Z,56128.00
2023-04-09T09:41:00.368Z,56416.00
2023-04-09T09:42:00.362Z,56544.00
2023-04-09T09:43:00.366Z,57760.00
2023-04-09T09:44:00.364Z,56768.00
2023-04-09T09:45:00.330Z,59040.00
2023-04-09T09:46:00.377Z,56608.00
2023-04-09T09:47:00.310Z,59040.00
2023-04-09T09:48:00.342Z,58336.00
2023-04-09T09:49:00.309Z,52448.00
2023-04-09T09:50:00.283Z,50176.00
2023-04-09T09:51:00.284Z,51040.00
2023-04-09T09:52:00.280Z,53632.00
2023-04-09T09:53:00.260Z,56480.00
2023-04-09T09:54:00.265Z,59648.00
2023-04-09T09:55:00.228Z,60992.00
2023-04-09T09:56:00.217Z,62144.00
2023-04-09T09:57:00.207Z,61728.00
2023-04-09T09:58:00.208Z,61760.00
2023-04-09T09:59:00.217Z,60096.00
2023-04-09T10:00:00.183Z,60864.00
2023-04-09T10:01:00.225Z,62528.00
2023-04-09T10:02:00.296Z,65920.00
2023-04-09T10:03:00.345Z,65248.00
2023-04-09T10:04:00.227Z,66656.00
2023-04-09T10:05:00.150Z,65024.00
2023-04-09T10:06:00.130Z,64864.00
2023-04-09T10:07:00.115Z,64896.00
2023-04-09T10:08:00.114Z,63712.00
2023-04-09T10:09:00.105Z,64288.00
2023-04-09T10:10:00.106Z,61984.00
2023-04-09T10:11:00.087Z,62432.00
2023-04-09T10:12:00.056Z,61792.00
2023-04-09T10:13:00.045Z,61952.00
2023-04-09T10:14:00.067Z,65696.00
2023-04-09T10:15:00.028Z,65728.00
2023-04-09T10:16:00.049Z,65216.00
2023-04-09T10:17:00.016Z,64896.00
2023-04-09T10:18:00.059Z,70848.00
2023-04-09T10:19:00.010Z,67360.00
2023-04-09T10:19:59.974Z,68064.00
2023-04-09T10:20:59.968Z,68224.00
2023-04-09T10:21:59.949Z,62752.00
2023-04-09T10:22:59.942Z,62624.00
2023-04-09T10:23:59.993Z,63776.00
2023-04-09T10:24:59.922Z,64224.00
2023-04-09T10:25:59.920Z,65312.00
2023-04-09T10:26:59.906Z,63904.00
2023-04-09T10:27:59.903Z,65152.00
2023-04-09T10:28:59.894Z,66560.00
2023-04-09T10:29:59.870Z,65472.00
2023-04-09T10:30:59.891Z,65312.00
2023-04-09T10:31:59.850Z,60512.00
2023-04-09T10:32:59.893Z,30272.00
2023-04-09T10:33:59.880Z,11760.00
2023-04-09T10:34:59.819Z,11104.00
2023-04-09T10:35:59.916Z,10832.00
2023-04-09T10:36:59.810Z,10768.00
2023-04-09T10:37:59.788Z,10704.00
2023-04-09T10:38:59.792Z,10640.00
2023-04-09T10:39:59.805Z,10596.00
2023-04-09T10:40:59.753Z,10600.00
2023-04-09T10:41:59.764Z,10460.00
2023-04-09T10:42:59.739Z,10428.00
2023-04-09T10:43:59.769Z,10460.00
2023-04-09T10:44:59.712Z,10272.00
2023-04-09T10:45:59.759Z,10108.00
2023-04-09T10:46:59.895Z,9884.00
2023-04-09T10:47:59.726Z,9724.00
2023-04-09T10:48:59.685Z,9592.00
2023-04-09T10:49:59.672Z,9556.00
2023-04-09T10:50:59.651Z,9400.00
2023-04-09T10:51:59.640Z,9300.00
2023-04-09T10:52:59.653Z,9168.00
2023-04-09T10:53:59.637Z,9176.00
2023-04-09T10:54:59.606Z,9140.00
2023-04-09T10:55:59.640Z,9088.00
2023-04-09T10:56:59.590Z,9048.00
2023-04-09T10:57:59.572Z,9016.00
2023-04-09T10:58:59.576Z,9040.00
2023-04-09T10:59:59.550Z,9032.00
2023-04-09T11:00:59.540Z,9056.00
2023-04-09T11:01:59.603Z,9100.00
2023-04-09T11:02:59.888Z,9004.00
2023-04-09T11:03:59.567Z,9044.00
2023-04-09T11:04:59.706Z,8960.00
2023-04-09T11:05:59.492Z,8812.00
2023-04-09T11:06:59.479Z,8636.00
2023-04-09T11:07:59.473Z,8592.00
2023-04-09T11:08:59.510Z,8484.00
2023-04-09T11:09:59.452Z,8380.00
2023-04-09T11:10:59.445Z,8304.00
2023-04-09T11:11:59.443Z,8276.00
2023-04-09T11:12:59.433Z,8288.00
2023-04-09T11:13:59.425Z,8176.00
2023-04-09T11:14:59.389Z,8088.00
2023-04-09T11:15:59.399Z,8056.00
2023-04-09T11:16:59.367Z,7940.00
2023-04-09T11:17:59.415Z,7956.00
2023-04-09T11:18:59.379Z,7944.00
2023-04-09T11:19:59.334Z,7936.00
2023-04-09T11:20:59.355Z,7908.00
2023-04-09T11:21:59.325Z,7812.00
2023-04-09T11:22:59.303Z,7808.00
2023-04-09T11:23:59.336Z,7740.00
2023-04-09T11:24:59.279Z,7680.00
2023-04-09T11:25:59.287Z,7564.00
2023-04-09T11:26:59.276Z,7396.00
2023-04-09T11:27:59.265Z,7408.00
2023-04-09T11:28:59.258Z,7356.00
2023-04-09T11:29:59.223Z,7272.00
2023-04-09T11:30:59.214Z,7092.00
2023-04-09T11:31:59.288Z,7076.00
2023-04-09T11:32:59.244Z,7004.00
2023-04-09T11:33:59.210Z,6924.00
2023-04-09T11:34:59.176Z,6836.00
2023-04-09T11:35:59.180Z,6720.00
2023-04-09T11:36:59.145Z,6648.00
2023-04-09T11:37:59.141Z,6544.00
2023-04-09T11:38:59.149Z,6472.00
2023-04-09T11:39:59.115Z,6384.00
2023-04-09T11:40:59.110Z,6312.00
2023-04-09T11:41:59.093Z,6196.00
2023-04-09T11:42:59.094Z,6128.00
2023-04-09T11:43:59.113Z,6108.00
2023-04-09T11:44:59.058Z,6088.00
2023-04-09T11:45:59.100Z,6080.00
2023-04-09T11:46:59.073Z,6068.00
2023-04-09T11:47:59.096Z,6088.00
2023-04-09T11:48:59.041Z,6136.00
2023-04-09T11:49:59.006Z,6012.00
2023-04-09T11:50:58.999Z,6020.00
2023-04-09T11:51:58.981Z,5832.00
2023-04-09T11:52:58.969Z,5756.00
2023-04-09T11:53:58.989Z,5744.00
2023-04-09T11:54:58.971Z,5652.00
2023-04-09T11:55:58.945Z,5556.00
2023-04-09T11:56:58.942Z,5476.00
2023-04-09T11:57:58.919Z,5480.00
2023-04-09T11:58:58.933Z,5432.00
2023-04-09T11:59:58.920Z,5332.00
2023-04-09T12:00:59.014Z,5356.00
2023-04-09T12:01:58.998Z,5232.00
2023-04-09T12:02:59.156Z,5184.00
2023-04-09T12:03:58.995Z,5140.00
2023-04-09T12:04:58.945Z,5088.00
2023-04-09T12:05:58.835Z,5060.00
2023-04-09T12:06:58.874Z,5052.00
2023-04-09T12:07:58.821Z,5044.00
2023-04-09T12:08:58.817Z,5012.00
2023-04-09T12:09:58.793Z,4964.00
2023-04-09T12:10:58.775Z,4924.00
2023-04-09T12:11:58.777Z,4928.00
2023-04-09T12:12:58.762Z,4860.00
2023-04-09T12:13:58.783Z,4852.00
2023-04-09T12:14:58.735Z,4812.00
2023-04-09T12:15:59.192Z,4756.00
2023-04-09T12:16:58.770Z,4724.00
2023-04-09T12:17:58.715Z,4696.00
2023-04-09T12:18:58.706Z,4652.00
2023-04-09T12:19:58.686Z,4644.00
2023-04-09T12:20:58.669Z,4624.00
2023-04-09T12:21:58.674Z,4604.00
2023-04-09T12:22:58.679Z,4588.00
2023-04-09T12:23:58.654Z,4568.00